Terminal Aerodrome Forecast
Issued by NWS

Home | Current Version | Previous Version | Text Only | Print | Product List | Glossary Off
Versions: 1 2 3 4 5 6 7 8 9 10 11 12 13 14 15 16 17

000
FTUS45 KGGW 282027 AAA
TAFGDV
TAF AMD
KGDV 282027Z 2820/2918 33028G38KT P6SM SCT080
     FM290300 34010KT P6SM SKC
     FM290900 32006KT P6SM FEW100
     FM291400 33010KT P6SM FEW240=

USA.gov is the U.S. government's official web portal to all federal, state and local government web resources and services.